sensor_id;sensor_type;location;lat;lon;timestamp;P1;durP1;ratioP1;P2;durP2;ratioP2
23360;SDS011;11852;50.082;18.554;2024-01-25T00:00:02;14.8;;;5.0;;
23360;SDS011;11852;50.082;18.554;2024-01-25T00:01:07;15.9;;;4.7;;
23360;SDS011;11852;50.082;18.554;2024-01-25T00:02:12;14.5;;;4.6;;
23360;SDS011;11852;50.082;18.554;2024-01-25T00:03:17;14.4;;;5.4;;
23360;SDS011;11852;50.082;18.554;2024-01-25T00:04:21;13.9;;;5.4;;
23360;SDS011;11852;50.082;18.554;2024-01-25T00:05:26;15.5;;;5.7;;
23360;SDS011;11852;50.082;18.554;2024-01-25T00:06:31;16.0;;;5.8;;
23360;SDS011;11852;50.082;18.554;2024-01-25T00:07:44;14.1;;;5.2;;
23360;SDS011;11852;50.082;18.554;2024-01-25T00:08:40;15.1;;;5.5;;
23360;SDS011;11852;50.082;18.554;2024-01-25T00:09:45;16.5;;;5.7;;
23360;SDS011;11852;50.082;18.554;2024-01-25T00:10:50;15.3;;;5.7;;
23360;SDS011;11852;50.082;18.554;2024-01-25T00:11:58;15.8;;;5.4;;
23360;SDS011;11852;50.082;18.554;2024-01-25T00:13:02;15.1;;;5.6;;
23360;SDS011;11852;50.082;18.554;2024-01-25T00:14:07;14.7;;;5.2;;
23360;SDS011;11852;50.082;18.554;2024-01-25T00:15:12;15.5;;;5.5;;
23360;SDS011;11852;50.082;18.554;2024-01-25T00:16:17;15.6;;;5.9;;
23360;SDS011;11852;50.082;18.554;2024-01-25T00:17:22;16.3;;;5.8;;
23360;SDS011;11852;50.082;18.554;2024-01-25T00:18:26;15.2;;;5.4;;
23360;SDS011;11852;50.082;18.554;2024-01-25T00:19:31;13.5;;;5.2;;
23360;SDS011;11852;50.082;18.554;2024-01-25T00:20:36;14.6;;;5.3;;
23360;SDS011;11852;50.082;18.554;2024-01-25T00:21:43;14.0;;;4.9;;
23360;SDS011;11852;50.082;18.554;2024-01-25T00:22:51;15.3;;;5.2;;
23360;SDS011;11852;50.082;18.554;2024-01-25T00:23:55;14.1;;;4.8;;
23360;SDS011;11852;50.082;18.554;2024-01-25T00:25:00;14.5;;;5.3;;
23360;SDS011;11852;50.082;18.554;2024-01-25T00:26:05;14.5;;;5.3;;
23360;SDS011;11852;50.082;18.554;2024-01-25T00:27:10;13.4;;;4.9;;
23360;SDS011;11852;50.082;18.554;2024-01-25T00:28:15;14.7;;;5.2;;
23360;SDS011;11852;50.082;18.554;2024-01-25T00:29:19;15.3;;;5.3;;
23360;SDS011;11852;50.082;18.554;2024-01-25T00:30:24;14.6;;;5.1;;
23360;SDS011;11852;50.082;18.554;2024-01-25T00:31:32;15.4;;;5.3;;
23360;SDS011;11852;50.082;18.554;2024-01-25T00:32:36;16.0;;;5.6;;
23360;SDS011;11852;50.082;18.554;2024-01-25T00:33:41;14.9;;;4.5;;
23360;SDS011;11852;50.082;18.554;2024-01-25T00:34:46;13.3;;;4.3;;
23360;SDS011;11852;50.082;18.554;2024-01-25T00:35:51;11.6;;;3.9;;
23360;SDS011;11852;50.082;18.554;2024-01-25T00:36:56;14.3;;;4.9;;
23360;SDS011;11852;50.082;18.554;2024-01-25T00:38:01;13.3;;;4.6;;
23360;SDS011;11852;50.082;18.554;2024-01-25T00:39:06;12.9;;;4.0;;
23360;SDS011;11852;50.082;18.554;2024-01-25T00:40:11;11.9;;;4.1;;
23360;SDS011;11852;50.082;18.554;2024-01-25T00:41:17;11.4;;;4.3;;
23360;SDS011;11852;50.082;18.554;2024-01-25T00:42:21;12.2;;;3.7;;
23360;SDS011;11852;50.082;18.554;2024-01-25T00:43:26;11.0;;;3.6;;
23360;SDS011;11852;50.082;18.554;2024-01-25T00:44:31;9.5;;;3.4;;
23360;SDS011;11852;50.082;18.554;2024-01-25T00:45:36;10.6;;;3.4;;
23360;SDS011;11852;50.082;18.554;2024-01-25T00:46:41;10.0;;;3.0;;
23360;SDS011;11852;50.082;18.554;2024-01-25T00:47:46;9.3;;;3.0;;
23360;SDS011;11852;50.082;18.554;2024-01-25T00:48:50;9.3;;;2.9;;
23360;SDS011;11852;50.082;18.554;2024-01-25T00:49:55;10.2;;;2.5;;
23360;SDS011;11852;50.082;18.554;2024-01-25T00:51:00;7.0;;;2.7;;
23360;SDS011;11852;50.082;18.554;2024-01-25T00:52:05;8.4;;;2.7;;
23360;SDS011;11852;50.082;18.554;2024-01-25T00:53:10;8.5;;;2.7;;
23360;SDS011;11852;50.082;18.554;2024-01-25T00:54:18;7.3;;;2.3;;
23360;SDS011;11852;50.082;18.554;2024-01-25T00:55:23;8.6;;;2.1;;
23360;SDS011;11852;50.082;18.554;2024-01-25T00:56:28;8.5;;;2.3;;
23360;SDS011;11852;50.082;18.554;2024-01-25T00:57:33;7.8;;;2.2;;
23360;SDS011;11852;50.082;18.554;2024-01-25T00:58:38;6.5;;;2.2;;
23360;SDS011;11852;50.082;18.554;2024-01-25T00:59:46;8.0;;;2.1;;
23360;SDS011;11852;50.082;18.554;2024-01-25T01:00:51;7.2;;;2.0;;
23360;SDS011;11852;50.082;18.554;2024-01-25T01:01:59;7.9;;;2.0;;
23360;SDS011;11852;50.082;18.554;2024-01-25T01:03:04;9.2;;;2.1;;
23360;SDS011;11852;50.082;18.554;2024-01-25T01:04:09;8.6;;;1.9;;
23360;SDS011;11852;50.082;18.554;2024-01-25T01:05:14;7.9;;;2.0;;
23360;SDS011;11852;50.082;18.554;2024-01-25T01:06:19;7.5;;;2.0;;
23360;SDS011;11852;50.082;18.554;2024-01-25T01:07:24;7.9;;;1.8;;
23360;SDS011;11852;50.082;18.554;2024-01-25T01:08:29;7.3;;;1.7;;
23360;SDS011;11852;50.082;18.554;2024-01-25T01:09:34;7.1;;;2.0;;
23360;SDS011;11852;50.082;18.554;2024-01-25T01:10:39;8.0;;;1.9;;
23360;SDS011;11852;50.082;18.554;2024-01-25T01:11:43;6.7;;;1.7;;
23360;SDS011;11852;50.082;18.554;2024-01-25T01:12:48;7.5;;;2.0;;
23360;SDS011;11852;50.082;18.554;2024-01-25T01:13:53;7.9;;;2.0;;
23360;SDS011;11852;50.082;18.554;2024-01-25T01:14:58;7.2;;;1.8;;
23360;SDS011;11852;50.082;18.554;2024-01-25T01:16:02;6.5;;;1.6;;
23360;SDS011;11852;50.082;18.554;2024-01-25T01:17:07;7.3;;;1.9;;
23360;SDS011;11852;50.082;18.554;2024-01-25T01:18:12;8.5;;;2.2;;
23360;SDS011;11852;50.082;18.554;2024-01-25T01:19:17;8.2;;;2.1;;
23360;SDS011;11852;50.082;18.554;2024-01-25T01:20:22;7.8;;;1.8;;
23360;SDS011;11852;50.082;18.554;2024-01-25T01:21:26;7.6;;;1.9;;
23360;SDS011;11852;50.082;18.554;2024-01-25T01:22:31;8.4;;;1.8;;
23360;SDS011;11852;50.082;18.554;2024-01-25T01:23:36;6.9;;;1.8;;
23360;SDS011;11852;50.082;18.554;2024-01-25T01:24:41;7.6;;;1.5;;
23360;SDS011;11852;50.082;18.554;2024-01-25T01:25:46;8.0;;;1.9;;
23360;SDS011;11852;50.082;18.554;2024-01-25T01:26:51;7.8;;;1.9;;
23360;SDS011;11852;50.082;18.554;2024-01-25T01:27:56;8.1;;;1.9;;
23360;SDS011;11852;50.082;18.554;2024-01-25T01:29:00;6.5;;;1.5;;
23360;SDS011;11852;50.082;18.554;2024-01-25T01:30:05;9.4;;;1.7;;
23360;SDS011;11852;50.082;18.554;2024-01-25T01:31:11;8.1;;;1.9;;
23360;SDS011;11852;50.082;18.554;2024-01-25T01:32:15;6.2;;;1.7;;
23360;SDS011;11852;50.082;18.554;2024-01-25T01:33:20;7.6;;;1.7;;
23360;SDS011;11852;50.082;18.554;2024-01-25T01:34:25;7.7;;;1.8;;
23360;SDS011;11852;50.082;18.554;2024-01-25T01:35:30;9.0;;;1.9;;
23360;SDS011;11852;50.082;18.554;2024-01-25T01:36:35;7.6;;;1.5;;
23360;SDS011;11852;50.082;18.554;2024-01-25T01:37:39;6.5;;;1.5;;
23360;SDS011;11852;50.082;18.554;2024-01-25T01:38:45;8.7;;;1.8;;
23360;SDS011;11852;50.082;18.554;2024-01-25T01:39:50;7.7;;;1.7;;
23360;SDS011;11852;50.082;18.554;2024-01-25T01:40:55;8.3;;;1.8;;
23360;SDS011;11852;50.082;18.554;2024-01-25T01:42:00;9.4;;;1.8;;
23360;SDS011;11852;50.082;18.554;2024-01-25T01:43:05;7.0;;;1.8;;
23360;SDS011;11852;50.082;18.554;2024-01-25T01:44:09;7.6;;;1.8;;
23360;SDS011;11852;50.082;18.554;2024-01-25T01:45:14;8.4;;;1.6;;
23360;SDS011;11852;50.082;18.554;2024-01-25T01:47:34;8.8;;;2.5;;
23360;SDS011;11852;50.082;18.554;2024-01-25T01:48:39;10.3;;;2.6;;
23360;SDS011;11852;50.082;18.554;2024-01-25T01:49:44;10.2;;;2.7;;
23360;SDS011;11852;50.082;18.554;2024-01-25T01:50:49;9.4;;;2.6;;
23360;SDS011;11852;50.082;18.554;2024-01-25T01:51:55;11.2;;;3.3;;
23360;SDS011;11852;50.082;18.554;2024-01-25T01:53:00;9.4;;;2.6;;
23360;SDS011;11852;50.082;18.554;2024-01-25T01:54:08;7.7;;;2.0;;
23360;SDS011;11852;50.082;18.554;2024-01-25T01:55:18;10.0;;;2.9;;
23360;SDS011;11852;50.082;18.554;2024-01-25T01:56:24;9.8;;;2.3;;
23360;SDS011;11852;50.082;18.554;2024-01-25T01:57:28;10.3;;;2.8;;
23360;SDS011;11852;50.082;18.554;2024-01-25T01:58:33;9.9;;;2.7;;
23360;SDS011;11852;50.082;18.554;2024-01-25T01:59:38;13.4;;;4.2;;
23360;SDS011;11852;50.082;18.554;2024-01-25T02:00:43;12.6;;;3.4;;
23360;SDS011;11852;50.082;18.554;2024-01-25T02:01:47;12.3;;;3.0;;
23360;SDS011;11852;50.082;18.554;2024-01-25T02:02:52;7.0;;;1.6;;
23360;SDS011;11852;50.082;18.554;2024-01-25T02:03:57;9.1;;;2.4;;
23360;SDS011;11852;50.082;18.554;2024-01-25T02:05:02;9.8;;;2.5;;
23360;SDS011;11852;50.082;18.554;2024-01-25T02:06:07;7.5;;;2.1;;
23360;SDS011;11852;50.082;18.554;2024-01-25T02:07:12;7.0;;;1.8;;
23360;SDS011;11852;50.082;18.554;2024-01-25T02:08:17;5.9;;;1.8;;
23360;SDS011;11852;50.082;18.554;2024-01-25T02:09:22;8.3;;;1.8;;
23360;SDS011;11852;50.082;18.554;2024-01-25T02:10:26;8.8;;;1.7;;
23360;SDS011;11852;50.082;18.554;2024-01-25T02:11:31;6.4;;;1.6;;
23360;SDS011;11852;50.082;18.554;2024-01-25T02:12:36;8.0;;;1.7;;
23360;SDS011;11852;50.082;18.554;2024-01-25T02:13:41;7.6;;;1.6;;
23360;SDS011;11852;50.082;18.554;2024-01-25T02:14:46;8.3;;;1.7;;
23360;SDS011;11852;50.082;18.554;2024-01-25T02:15:51;8.4;;;1.8;;
23360;SDS011;11852;50.082;18.554;2024-01-25T02:16:56;10.1;;;1.8;;
23360;SDS011;11852;50.082;18.554;2024-01-25T02:18:00;9.1;;;2.0;;
23360;SDS011;11852;50.082;18.554;2024-01-25T02:19:05;8.1;;;1.8;;
23360;SDS011;11852;50.082;18.554;2024-01-25T02:20:10;8.3;;;2.2;;
23360;SDS011;11852;50.082;18.554;2024-01-25T02:21:18;7.8;;;1.8;;
23360;SDS011;11852;50.082;18.554;2024-01-25T02:22:22;8.4;;;2.3;;
23360;SDS011;11852;50.082;18.554;2024-01-25T02:23:27;8.5;;;2.0;;
23360;SDS011;11852;50.082;18.554;2024-01-25T02:24:32;6.1;;;1.8;;
23360;SDS011;11852;50.082;18.554;2024-01-25T02:25:37;8.3;;;2.1;;
23360;SDS011;11852;50.082;18.554;2024-01-25T02:26:42;8.8;;;2.0;;
23360;SDS011;11852;50.082;18.554;2024-01-25T02:27:46;8.5;;;2.2;;
23360;SDS011;11852;50.082;18.554;2024-01-25T02:28:51;9.3;;;2.4;;
23360;SDS011;11852;50.082;18.554;2024-01-25T02:29:56;8.3;;;2.2;;
23360;SDS011;11852;50.082;18.554;2024-01-25T02:31:01;7.1;;;2.1;;
23360;SDS011;11852;50.082;18.554;2024-01-25T02:32:06;7.1;;;1.9;;
23360;SDS011;11852;50.082;18.554;2024-01-25T02:33:10;7.9;;;2.5;;
23360;SDS011;11852;50.082;18.554;2024-01-25T02:34:15;9.1;;;2.6;;
23360;SDS011;11852;50.082;18.554;2024-01-25T02:35:20;8.5;;;2.9;;
23360;SDS011;11852;50.082;18.554;2024-01-25T02:36:25;9.3;;;2.9;;
23360;SDS011;11852;50.082;18.554;2024-01-25T02:37:29;8.5;;;2.7;;
23360;SDS011;11852;50.082;18.554;2024-01-25T02:38:34;7.5;;;2.4;;
23360;SDS011;11852;50.082;18.554;2024-01-25T02:39:39;8.3;;;2.8;;
23360;SDS011;11852;50.082;18.554;2024-01-25T02:40:44;9.0;;;1.9;;
23360;SDS011;11852;50.082;18.554;2024-01-25T02:41:49;10.2;;;3.1;;
23360;SDS011;11852;50.082;18.554;2024-01-25T02:42:54;9.9;;;2.3;;
23360;SDS011;11852;50.082;18.554;2024-01-25T02:43:59;8.5;;;1.6;;
23360;SDS011;11852;50.082;18.554;2024-01-25T02:45:03;8.2;;;1.7;;
23360;SDS011;11852;50.082;18.554;2024-01-25T02:46:08;8.5;;;2.1;;
23360;SDS011;11852;50.082;18.554;2024-01-25T02:47:13;6.5;;;1.8;;
23360;SDS011;11852;50.082;18.554;2024-01-25T02:48:17;7.2;;;1.7;;
23360;SDS011;11852;50.082;18.554;2024-01-25T02:49:22;8.4;;;1.6;;
23360;SDS011;11852;50.082;18.554;2024-01-25T02:50:27;7.9;;;1.8;;
23360;SDS011;11852;50.082;18.554;2024-01-25T02:51:35;8.3;;;1.8;;
23360;SDS011;11852;50.082;18.554;2024-01-25T02:52:40;7.8;;;1.5;;
23360;SDS011;11852;50.082;18.554;2024-01-25T02:53:45;6.9;;;1.5;;
23360;SDS011;11852;50.082;18.554;2024-01-25T02:54:49;6.9;;;1.5;;
23360;SDS011;11852;50.082;18.554;2024-01-25T02:55:54;7.7;;;1.5;;
23360;SDS011;11852;50.082;18.554;2024-01-25T02:56:59;5.7;;;1.6;;
23360;SDS011;11852;50.082;18.554;2024-01-25T02:58:04;7.2;;;1.4;;
23360;SDS011;11852;50.082;18.554;2024-01-25T02:59:09;8.9;;;2.3;;
23360;SDS011;11852;50.082;18.554;2024-01-25T03:00:14;7.4;;;1.7;;
23360;SDS011;11852;50.082;18.554;2024-01-25T03:01:19;8.5;;;1.7;;
23360;SDS011;11852;50.082;18.554;2024-01-25T03:02:24;7.1;;;1.6;;
23360;SDS011;11852;50.082;18.554;2024-01-25T03:03:29;8.5;;;1.6;;
23360;SDS011;11852;50.082;18.554;2024-01-25T03:04:34;9.1;;;1.8;;
23360;SDS011;11852;50.082;18.554;2024-01-25T03:05:39;7.1;;;1.5;;
23360;SDS011;11852;50.082;18.554;2024-01-25T03:06:44;7.4;;;1.6;;
23360;SDS011;11852;50.082;18.554;2024-01-25T03:07:49;6.1;;;1.4;;
23360;SDS011;11852;50.082;18.554;2024-01-25T03:08:54;7.4;;;2.4;;
23360;SDS011;11852;50.082;18.554;2024-01-25T03:09:59;7.5;;;1.4;;
23360;SDS011;11852;50.082;18.554;2024-01-25T03:11:04;7.4;;;1.8;;
23360;SDS011;11852;50.082;18.554;2024-01-25T03:12:09;6.5;;;1.8;;
23360;SDS011;11852;50.082;18.554;2024-01-25T03:13:14;7.7;;;2.1;;
23360;SDS011;11852;50.082;18.554;2024-01-25T03:14:19;7.6;;;1.6;;
23360;SDS011;11852;50.082;18.554;2024-01-25T03:15:24;6.6;;;1.5;;
23360;SDS011;11852;50.082;18.554;2024-01-25T03:16:29;7.3;;;1.4;;
23360;SDS011;11852;50.082;18.554;2024-01-25T03:17:36;5.9;;;1.5;;
23360;SDS011;11852;50.082;18.554;2024-01-25T03:18:41;7.5;;;1.5;;
23360;SDS011;11852;50.082;18.554;2024-01-25T03:19:46;6.6;;;1.4;;
23360;SDS011;11852;50.082;18.554;2024-01-25T03:20:51;9.0;;;1.6;;
23360;SDS011;11852;50.082;18.554;2024-01-25T03:21:56;7.4;;;1.5;;
23360;SDS011;11852;50.082;18.554;2024-01-25T03:23:01;7.7;;;1.7;;
23360;SDS011;11852;50.082;18.554;2024-01-25T03:24:05;6.6;;;1.3;;
23360;SDS011;11852;50.082;18.554;2024-01-25T03:25:10;6.1;;;1.1;;
23360;SDS011;11852;50.082;18.554;2024-01-25T03:26:15;6.6;;;1.4;;
23360;SDS011;11852;50.082;18.554;2024-01-25T03:27:20;6.6;;;1.4;;
23360;SDS011;11852;50.082;18.554;2024-01-25T03:28:27;6.8;;;1.3;;
23360;SDS011;11852;50.082;18.554;2024-01-25T03:29:32;6.3;;;1.3;;
23360;SDS011;11852;50.082;18.554;2024-01-25T03:30:37;6.8;;;1.3;;
23360;SDS011;11852;50.082;18.554;2024-01-25T03:31:42;6.2;;;1.4;;
23360;SDS011;11852;50.082;18.554;2024-01-25T03:32:46;7.1;;;1.3;;
23360;SDS011;11852;50.082;18.554;2024-01-25T03:33:51;8.0;;;1.5;;
23360;SDS011;11852;50.082;18.554;2024-01-25T03:34:56;6.0;;;1.5;;
23360;SDS011;11852;50.082;18.554;2024-01-25T03:36:04;7.4;;;1.4;;
23360;SDS011;11852;50.082;18.554;2024-01-25T03:37:09;7.1;;;1.5;;
23360;SDS011;11852;50.082;18.554;2024-01-25T03:38:13;7.4;;;1.7;;
23360;SDS011;11852;50.082;18.554;2024-01-25T03:39:18;6.9;;;1.4;;
23360;SDS011;11852;50.082;18.554;2024-01-25T03:40:23;6.1;;;1.3;;
23360;SDS011;11852;50.082;18.554;2024-01-25T03:41:27;6.6;;;1.4;;
23360;SDS011;11852;50.082;18.554;2024-01-25T03:42:32;6.7;;;1.5;;
23360;SDS011;11852;50.082;18.554;2024-01-25T03:43:37;5.9;;;1.3;;
23360;SDS011;11852;50.082;18.554;2024-01-25T03:44:42;5.9;;;1.2;;
23360;SDS011;11852;50.082;18.554;2024-01-25T03:45:46;4.9;;;1.3;;
23360;SDS011;11852;50.082;18.554;2024-01-25T03:46:54;5.2;;;1.2;;
23360;SDS011;11852;50.082;18.554;2024-01-25T03:47:59;6.5;;;1.3;;
23360;SDS011;11852;50.082;18.554;2024-01-25T03:49:03;6.3;;;1.4;;
23360;SDS011;11852;50.082;18.554;2024-01-25T03:50:08;5.9;;;1.4;;
23360;SDS011;11852;50.082;18.554;2024-01-25T03:51:13;7.6;;;1.5;;
23360;SDS011;11852;50.082;18.554;2024-01-25T03:52:18;5.5;;;1.5;;
23360;SDS011;11852;50.082;18.554;2024-01-25T03:53:23;5.9;;;1.3;;
23360;SDS011;11852;50.082;18.554;2024-01-25T03:54:31;5.8;;;1.3;;
23360;SDS011;11852;50.082;18.554;2024-01-25T03:55:35;7.0;;;1.6;;
23360;SDS011;11852;50.082;18.554;2024-01-25T03:56:40;6.1;;;1.2;;
23360;SDS011;11852;50.082;18.554;2024-01-25T03:57:45;6.6;;;1.4;;
23360;SDS011;11852;50.082;18.554;2024-01-25T03:58:49;6.1;;;1.3;;
23360;SDS011;11852;50.082;18.554;2024-01-25T03:59:54;5.4;;;1.1;;
23360;SDS011;11852;50.082;18.554;2024-01-25T04:01:02;6.4;;;1.3;;
23360;SDS011;11852;50.082;18.554;2024-01-25T04:02:07;6.0;;;1.3;;
23360;SDS011;11852;50.082;18.554;2024-01-25T04:03:14;6.1;;;1.4;;
23360;SDS011;11852;50.082;18.554;2024-01-25T04:04:19;5.3;;;1.2;;
23360;SDS011;11852;50.082;18.554;2024-01-25T04:05:24;6.3;;;1.4;;
23360;SDS011;11852;50.082;18.554;2024-01-25T04:06:29;6.6;;;1.4;;
23360;SDS011;11852;50.082;18.554;2024-01-25T04:07:33;6.4;;;1.4;;
23360;SDS011;11852;50.082;18.554;2024-01-25T04:08:38;7.1;;;1.4;;
23360;SDS011;11852;50.082;18.554;2024-01-25T04:09:43;5.9;;;1.3;;
23360;SDS011;11852;50.082;18.554;2024-01-25T04:11:44;5.9;;;1.3;;
23360;SDS011;11852;50.082;18.554;2024-01-25T04:12:47;5.9;;;1.3;;
23360;SDS011;11852;50.082;18.554;2024-01-25T04:14:50;5.9;;;1.3;;
23360;SDS011;11852;50.082;18.554;2024-01-25T04:16:53;5.9;;;1.3;;
23360;SDS011;11852;50.082;18.554;2024-01-25T04:18:55;5.9;;;1.3;;
23360;SDS011;11852;50.082;18.554;2024-01-25T04:20:01;5.9;;;1.3;;
23360;SDS011;11852;50.082;18.554;2024-01-25T04:21:03;5.9;;;1.3;;
23360;SDS011;11852;50.082;18.554;2024-01-25T04:23:06;5.9;;;1.3;;
23360;SDS011;11852;50.082;18.554;2024-01-25T04:24:43;5.9;;;1.3;;
23360;SDS011;11852;50.082;18.554;2024-01-25T04:25:48;7.1;;;1.7;;
23360;SDS011;11852;50.082;18.554;2024-01-25T04:26:52;7.1;;;2.0;;
23360;SDS011;11852;50.082;18.554;2024-01-25T04:27:57;8.1;;;2.2;;
23360;SDS011;11852;50.082;18.554;2024-01-25T04:29:05;9.3;;;3.0;;
23360;SDS011;11852;50.082;18.554;2024-01-25T04:30:13;9.9;;;2.8;;
23360;SDS011;11852;50.082;18.554;2024-01-25T04:31:17;11.8;;;3.4;;
23360;SDS011;11852;50.082;18.554;2024-01-25T04:32:25;9.8;;;2.8;;
23360;SDS011;11852;50.082;18.554;2024-01-25T04:33:30;8.2;;;2.1;;
23360;SDS011;11852;50.082;18.554;2024-01-25T04:34:35;8.1;;;2.5;;
23360;SDS011;11852;50.082;18.554;2024-01-25T04:35:39;7.9;;;2.4;;
23360;SDS011;11852;50.082;18.554;2024-01-25T04:36:44;8.2;;;2.8;;
23360;SDS011;11852;50.082;18.554;2024-01-25T04:37:49;8.5;;;2.4;;
23360;SDS011;11852;50.082;18.554;2024-01-25T04:38:53;8.3;;;2.8;;
23360;SDS011;11852;50.082;18.554;2024-01-25T04:39:58;8.5;;;2.4;;
23360;SDS011;11852;50.082;18.554;2024-01-25T04:41:03;7.4;;;2.3;;
23360;SDS011;11852;50.082;18.554;2024-01-25T04:42:08;8.4;;;2.4;;
23360;SDS011;11852;50.082;18.554;2024-01-25T04:43:12;8.7;;;2.1;;
23360;SDS011;11852;50.082;18.554;2024-01-25T04:44:17;6.6;;;1.6;;
23360;SDS011;11852;50.082;18.554;2024-01-25T04:45:22;7.6;;;1.5;;
23360;SDS011;11852;50.082;18.554;2024-01-25T04:46:27;7.1;;;1.9;;
23360;SDS011;11852;50.082;18.554;2024-01-25T04:47:32;6.7;;;1.5;;
23360;SDS011;11852;50.082;18.554;2024-01-25T04:48:36;6.3;;;1.5;;
23360;SDS011;11852;50.082;18.554;2024-01-25T04:49:41;7.1;;;1.6;;
23360;SDS011;11852;50.082;18.554;2024-01-25T04:50:46;7.0;;;1.8;;
23360;SDS011;11852;50.082;18.554;2024-01-25T04:51:51;6.6;;;1.4;;
23360;SDS011;11852;50.082;18.554;2024-01-25T04:52:56;6.8;;;1.6;;
23360;SDS011;11852;50.082;18.554;2024-01-25T04:54:00;6.0;;;1.7;;
23360;SDS011;11852;50.082;18.554;2024-01-25T04:55:05;8.1;;;2.0;;
23360;SDS011;11852;50.082;18.554;2024-01-25T04:56:10;5.7;;;1.7;;
23360;SDS011;11852;50.082;18.554;2024-01-25T04:57:15;6.9;;;1.6;;
23360;SDS011;11852;50.082;18.554;2024-01-25T04:58:20;7.8;;;2.0;;
23360;SDS011;11852;50.082;18.554;2024-01-25T04:59:25;6.8;;;1.8;;
23360;SDS011;11852;50.082;18.554;2024-01-25T05:00:29;7.8;;;1.8;;
23360;SDS011;11852;50.082;18.554;2024-01-25T05:01:34;8.7;;;2.0;;
23360;SDS011;11852;50.082;18.554;2024-01-25T05:02:39;7.6;;;1.8;;
23360;SDS011;11852;50.082;18.554;2024-01-25T05:03:44;5.8;;;1.8;;
23360;SDS011;11852;50.082;18.554;2024-01-25T05:04:49;5.9;;;1.7;;
23360;SDS011;11852;50.082;18.554;2024-01-25T05:05:54;8.6;;;1.9;;
23360;SDS011;11852;50.082;18.554;2024-01-25T05:06:58;10.6;;;2.0;;
23360;SDS011;11852;50.082;18.554;2024-01-25T05:08:03;7.1;;;1.8;;
23360;SDS011;11852;50.082;18.554;2024-01-25T05:09:08;7.7;;;2.0;;
23360;SDS011;11852;50.082;18.554;2024-01-25T05:10:13;9.5;;;2.1;;
23360;SDS011;11852;50.082;18.554;2024-01-25T05:11:18;8.1;;;2.0;;
23360;SDS011;11852;50.082;18.554;2024-01-25T05:12:23;7.1;;;2.0;;
23360;SDS011;11852;50.082;18.554;2024-01-25T05:13:28;8.5;;;2.2;;
23360;SDS011;11852;50.082;18.554;2024-01-25T05:14:33;8.7;;;2.3;;
23360;SDS011;11852;50.082;18.554;2024-01-25T05:15:37;11.0;;;2.9;;
23360;SDS011;11852;50.082;18.554;2024-01-25T05:16:42;11.8;;;3.3;;
23360;SDS011;11852;50.082;18.554;2024-01-25T05:17:47;9.7;;;3.0;;
23360;SDS011;11852;50.082;18.554;2024-01-25T05:18:52;10.2;;;2.8;;
23360;SDS011;11852;50.082;18.554;2024-01-25T05:19:57;11.1;;;2.9;;
23360;SDS011;11852;50.082;18.554;2024-01-25T05:21:02;11.8;;;3.2;;
23360;SDS011;11852;50.082;18.554;2024-01-25T05:22:09;10.5;;;2.9;;
23360;SDS011;11852;50.082;18.554;2024-01-25T05:23:14;10.1;;;2.8;;
23360;SDS011;11852;50.082;18.554;2024-01-25T05:24:18;9.7;;;3.1;;
23360;SDS011;11852;50.082;18.554;2024-01-25T05:25:23;9.3;;;2.7;;
23360;SDS011;11852;50.082;18.554;2024-01-25T05:26:28;10.5;;;2.6;;
23360;SDS011;11852;50.082;18.554;2024-01-25T05:27:36;8.4;;;2.1;;
23360;SDS011;11852;50.082;18.554;2024-01-25T05:28:40;8.6;;;2.6;;
23360;SDS011;11852;50.082;18.554;2024-01-25T05:29:45;9.9;;;2.4;;
23360;SDS011;11852;50.082;18.554;2024-01-25T05:30:50;10.1;;;2.2;;
23360;SDS011;11852;50.082;18.554;2024-01-25T05:31:55;8.3;;;2.2;;
23360;SDS011;11852;50.082;18.554;2024-01-25T05:32:59;8.0;;;2.2;;
23360;SDS011;11852;50.082;18.554;2024-01-25T05:34:04;9.4;;;2.3;;
23360;SDS011;11852;50.082;18.554;2024-01-25T05:35:09;9.5;;;2.0;;
23360;SDS011;11852;50.082;18.554;2024-01-25T05:36:13;9.1;;;2.4;;
23360;SDS011;11852;50.082;18.554;2024-01-25T05:37:18;10.3;;;2.6;;
23360;SDS011;11852;50.082;18.554;2024-01-25T05:38:23;8.5;;;2.3;;
23360;SDS011;11852;50.082;18.554;2024-01-25T05:39:28;8.9;;;2.3;;
23360;SDS011;11852;50.082;18.554;2024-01-25T05:40:33;10.8;;;2.7;;
23360;SDS011;11852;50.082;18.554;2024-01-25T05:41:38;9.2;;;2.0;;
23360;SDS011;11852;50.082;18.554;2024-01-25T05:42:42;9.7;;;2.1;;
23360;SDS011;11852;50.082;18.554;2024-01-25T05:43:47;10.0;;;2.3;;
23360;SDS011;11852;50.082;18.554;2024-01-25T05:44:52;9.6;;;2.1;;
23360;SDS011;11852;50.082;18.554;2024-01-25T05:45:57;10.3;;;2.3;;
23360;SDS011;11852;50.082;18.554;2024-01-25T05:47:02;9.0;;;1.9;;
23360;SDS011;11852;50.082;18.554;2024-01-25T05:48:07;8.9;;;2.4;;
23360;SDS011;11852;50.082;18.554;2024-01-25T05:49:12;8.2;;;2.0;;
23360;SDS011;11852;50.082;18.554;2024-01-25T05:50:19;9.5;;;2.2;;
23360;SDS011;11852;50.082;18.554;2024-01-25T05:51:24;9.8;;;2.3;;
23360;SDS011;11852;50.082;18.554;2024-01-25T05:52:29;9.6;;;2.2;;
23360;SDS011;11852;50.082;18.554;2024-01-25T05:53:34;9.0;;;2.4;;
23360;SDS011;11852;50.082;18.554;2024-01-25T05:54:38;7.3;;;1.8;;
23360;SDS011;11852;50.082;18.554;2024-01-25T05:55:43;9.2;;;2.0;;
23360;SDS011;11852;50.082;18.554;2024-01-25T05:56:48;8.7;;;2.2;;
23360;SDS011;11852;50.082;18.554;2024-01-25T05:57:53;10.2;;;2.1;;
23360;SDS011;11852;50.082;18.554;2024-01-25T05:58:58;9.2;;;2.0;;
23360;SDS011;11852;50.082;18.554;2024-01-25T06:00:03;10.4;;;2.3;;
23360;SDS011;11852;50.082;18.554;2024-01-25T06:01:07;9.1;;;2.3;;
23360;SDS011;11852;50.082;18.554;2024-01-25T06:02:12;11.0;;;2.5;;
23360;SDS011;11852;50.082;18.554;2024-01-25T06:03:17;10.6;;;2.6;;
23360;SDS011;11852;50.082;18.554;2024-01-25T06:04:21;10.6;;;2.5;;
23360;SDS011;11852;50.082;18.554;2024-01-25T06:05:26;13.4;;;2.9;;
23360;SDS011;11852;50.082;18.554;2024-01-25T06:06:31;9.0;;;2.4;;
23360;SDS011;11852;50.082;18.554;2024-01-25T06:07:36;12.2;;;2.8;;
23360;SDS011;11852;50.082;18.554;2024-01-25T06:08:41;9.8;;;2.6;;
23360;SDS011;11852;50.082;18.554;2024-01-25T06:09:45;10.7;;;3.0;;
23360;SDS011;11852;50.082;18.554;2024-01-25T06:10:50;10.7;;;2.9;;
23360;SDS011;11852;50.082;18.554;2024-01-25T06:11:55;9.4;;;2.6;;
23360;SDS011;11852;50.082;18.554;2024-01-25T06:13:00;11.0;;;2.8;;
23360;SDS011;11852;50.082;18.554;2024-01-25T06:14:08;11.0;;;3.0;;
23360;SDS011;11852;50.082;18.554;2024-01-25T06:15:12;10.8;;;2.6;;
23360;SDS011;11852;50.082;18.554;2024-01-25T06:16:17;10.8;;;2.6;;
23360;SDS011;11852;50.082;18.554;2024-01-25T06:17:25;10.2;;;2.8;;
23360;SDS011;11852;50.082;18.554;2024-01-25T06:18:30;8.5;;;2.6;;
23360;SDS011;11852;50.082;18.554;2024-01-25T06:19:34;9.3;;;2.6;;
23360;SDS011;11852;50.082;18.554;2024-01-25T06:20:39;10.2;;;2.3;;
23360;SDS011;11852;50.082;18.554;2024-01-25T06:21:44;9.5;;;2.7;;
23360;SDS011;11852;50.082;18.554;2024-01-25T06:22:49;8.9;;;2.5;;
23360;SDS011;11852;50.082;18.554;2024-01-25T06:23:54;10.1;;;2.6;;
23360;SDS011;11852;50.082;18.554;2024-01-25T06:24:58;9.7;;;2.5;;
23360;SDS011;11852;50.082;18.554;2024-01-25T06:26:04;8.8;;;2.0;;
23360;SDS011;11852;50.082;18.554;2024-01-25T06:27:11;8.7;;;2.2;;
23360;SDS011;11852;50.082;18.554;2024-01-25T06:28:15;11.0;;;2.2;;
23360;SDS011;11852;50.082;18.554;2024-01-25T06:29:20;8.3;;;1.9;;
23360;SDS011;11852;50.082;18.554;2024-01-25T06:30:28;9.1;;;2.1;;
23360;SDS011;11852;50.082;18.554;2024-01-25T06:31:33;9.2;;;2.1;;
23360;SDS011;11852;50.082;18.554;2024-01-25T06:32:37;10.0;;;2.1;;
23360;SDS011;11852;50.082;18.554;2024-01-25T06:33:42;9.1;;;1.9;;
23360;SDS011;11852;50.082;18.554;2024-01-25T06:34:47;8.4;;;2.0;;
23360;SDS011;11852;50.082;18.554;2024-01-25T06:35:52;8.0;;;1.9;;
23360;SDS011;11852;50.082;18.554;2024-01-25T06:36:56;10.2;;;2.3;;
23360;SDS011;11852;50.082;18.554;2024-01-25T06:38:01;9.5;;;2.1;;
23360;SDS011;11852;50.082;18.554;2024-01-25T06:39:06;8.5;;;1.9;;
23360;SDS011;11852;50.082;18.554;2024-01-25T06:40:11;10.2;;;1.9;;
23360;SDS011;11852;50.082;18.554;2024-01-25T06:41:16;10.4;;;2.3;;
23360;SDS011;11852;50.082;18.554;2024-01-25T06:42:21;9.3;;;2.1;;